Time;durP1;ratioP1;P1;durP2;ratioP2;P2;SDS_P1;SDS_P2;PMS_P1;PMS_P2;Temp;Humidity;BMP_temperature;BMP_pressure;BME280_temperature;BME280_humidity;BME280_pressure;Samples;Min_cycle;Max_cycle;Signal;HPM_P1;HPM_P2
2023/01/16 05:02:27;;;;;;;0.77;0.77;;;5.00;99.90;;;;;;4984919;23;20305;-67
2023/01/16 05:04:54;;;;;;;0.30;0.30;;;5.00;99.90;;;;;;4914699;29;20218;-67
2023/01/16 05:07:20;;;;;;;3.50;0.60;;;4.90;99.90;;;;;;4915794;29;20226;-68
2023/01/16 05:09:47;;;;;;;1.35;1.35;;;4.90;99.90;;;;;;4922414;29;20211;-67
2023/01/16 05:12:14;;;;;;;0.10;0.10;;;4.90;99.90;;;;;;4901908;29;20251;-67
2023/01/16 05:14:41;;;;;;;0.57;0.57;;;4.80;99.90;;;;;;4904246;29;20701;-67
2023/01/16 05:17:07;;;;;;;0.10;0.10;;;4.80;99.90;;;;;;4903063;29;20232;-67
2023/01/16 05:19:35;;;;;;;0.25;0.25;;;4.80;99.90;;;;;;4896281;29;20216;-68
2023/01/16 05:22:02;;;;;;;2.17;1.85;;;4.80;99.90;;;;;;4896013;29;20235;-69
2023/01/16 05:24:29;;;;;;;2.08;2.08;;;4.80;99.90;;;;;;4899298;29;20207;-66
2023/01/16 05:26:55;;;;;;;0.10;0.10;;;4.80;99.90;;;;;;4902337;29;20224;-68
2023/01/16 05:29:22;;;;;;;0.43;0.43;;;4.80;99.90;;;;;;4900452;29;20207;-66
2023/01/16 05:31:49;;;;;;;0.20;0.20;;;4.80;99.90;;;;;;4904928;29;20239;-66
2023/01/16 05:34:15;;;;;;;0.20;0.20;;;4.80;99.90;;;;;;4897046;29;20250;-66
2023/01/16 05:36:43;;;;;;;0.43;0.38;;;4.80;99.90;;;;;;4904669;29;20210;-67
2023/01/16 05:39:10;;;;;;;0.20;0.20;;;4.90;99.90;;;;;;4906842;29;20239;-68
2023/01/16 05:41:37;;;;;;;2.25;0.30;;;4.90;99.90;;;;;;4901727;29;20232;-67
2023/01/16 05:44:04;;;;;;;1.77;0.55;;;4.90;99.90;;;;;;4911087;29;20214;-67
2023/01/16 05:46:31;;;;;;;4.88;0.40;;;4.90;99.90;;;;;;4901225;29;20213;-67
2023/01/16 05:48:57;;;;;;;0.20;0.20;;;5.00;99.90;;;;;;4901535;29;20220;-67
2023/01/16 05:51:24;;;;;;;0.57;0.57;;;5.00;99.90;;;;;;4904929;29;20239;-68
2023/01/16 05:53:52;;;;;;;0.20;0.20;;;5.00;99.90;;;;;;4912199;29;20213;-67
2023/01/16 05:56:22;;;;;;;0.10;0.10;;;5.10;99.90;;;;;;4900294;29;20552;-66
2023/01/16 05:58:49;;;;;;;8.30;0.90;;;5.10;99.90;;;;;;4896259;29;20287;-67
2023/01/16 06:01:16;;;;;;;0.20;0.20;;;5.10;99.90;;;;;;4906991;29;20240;-67
2023/01/16 06:03:42;;;;;;;5.25;4.95;;;5.10;99.90;;;;;;4899337;29;20210;-68
2023/01/16 06:06:09;;;;;;;0.75;0.75;;;5.10;99.90;;;;;;4905789;29;20211;-68
2023/01/16 06:08:36;;;;;;;0.30;0.30;;;5.10;99.90;;;;;;4901285;29;20215;-68
2023/01/16 06:11:04;;;;;;;0.20;0.20;;;5.10;99.90;;;;;;4895502;29;20232;-68
2023/01/16 06:13:31;;;;;;;1.33;0.75;;;5.10;99.90;;;;;;4902084;29;20203;-68
2023/01/16 06:15:58;;;;;;;0.90;0.47;;;5.10;99.90;;;;;;4911471;29;20246;-68
2023/01/16 06:18:24;;;;;;;0.65;0.20;;;5.10;99.90;;;;;;4904579;29;20200;-68
2023/01/16 06:20:51;;;;;;;0.40;0.40;;;5.10;99.90;;;;;;4895677;29;20235;-68
2023/01/16 06:23:18;;;;;;;0.10;0.10;;;5.10;99.90;;;;;;4898879;29;20207;-68
2023/01/16 06:25:48;;;;;;;0.50;0.50;;;5.00;99.90;;;;;;4917311;29;20204;-68
2023/01/16 06:28:16;;;;;;;0.68;0.35;;;5.00;99.90;;;;;;4915043;29;20214;-67
2023/01/16 06:30:43;;;;;;;0.30;0.20;;;4.90;99.90;;;;;;4905155;29;20704;-68
2023/01/16 06:33:10;;;;;;;0.15;0.15;;;4.90;99.90;;;;;;4898629;29;20303;-68
2023/01/16 06:35:37;;;;;;;0.40;0.40;;;4.90;99.90;;;;;;4913693;29;20695;-67
2023/01/16 06:38:03;;;;;;;0.20;0.20;;;4.80;99.90;;;;;;4909439;29;20206;-68
2023/01/16 06:40:30;;;;;;;0.30;0.30;;;4.70;99.90;;;;;;4902374;29;20239;-68
2023/01/16 06:42:57;;;;;;;0.20;0.20;;;4.70;99.90;;;;;;4911698;29;20206;-67
2023/01/16 06:45:25;;;;;;;6.93;2.15;;;4.70;99.90;;;;;;4904302;29;20208;-68
2023/01/16 06:47:52;;;;;;;11.82;1.10;;;4.60;99.90;;;;;;4910282;29;20218;-68
2023/01/16 06:50:19;;;;;;;0.52;0.52;;;4.60;99.90;;;;;;4904015;29;20351;-67
2023/01/16 06:52:46;;;;;;;0.70;0.70;;;4.60;99.90;;;;;;4914704;29;20224;-68
2023/01/16 06:55:13;;;;;;;0.47;0.47;;;4.50;99.90;;;;;;4915942;29;20223;-67
2023/01/16 06:57:40;;;;;;;0.20;0.20;;;4.50;99.90;;;;;;4907684;29;20207;-67
2023/01/16 07:00:08;;;;;;;23.13;0.75;;;4.50;99.90;;;;;;4904203;29;20211;-67
2023/01/16 07:02:39;;;;;;;2.10;1.90;;;4.50;99.90;;;;;;4903265;29;20263;-68
2023/01/16 07:05:08;;;;;;;0.20;0.20;;;4.50;99.90;;;;;;4908963;29;20214;-67
2023/01/16 07:07:35;;;;;;;0.55;0.55;;;4.50;99.90;;;;;;4910619;29;20587;-68
2023/01/16 07:10:01;;;;;;;0.20;0.20;;;4.40;99.90;;;;;;4904732;29;20207;-67
2023/01/16 07:12:28;;;;;;;0.95;0.65;;;4.40;99.90;;;;;;4899966;29;20328;-68
2023/01/16 07:23:19;;;;;;;0.52;0.52;;;4.30;99.90;;;;;;4898584;29;20363;-68
2023/01/16 07:25:47;;;;;;;0.20;0.20;;;4.30;99.90;;;;;;4901768;29;20203;-67
2023/01/16 07:28:14;;;;;;;0.20;0.20;;;4.20;99.90;;;;;;4910915;29;20815;-68
2023/01/16 07:30:40;;;;;;;8.43;0.95;;;4.20;99.90;;;;;;4905626;29;20230;-66
2023/01/16 07:33:09;;;;;;;0.73;0.73;;;4.20;99.90;;;;;;4901715;29;20203;-68
2023/01/16 07:35:36;;;;;;;3.50;1.42;;;4.20;99.90;;;;;;4910384;29;20253;-68
2023/01/16 07:38:03;;;;;;;1.95;0.68;;;4.20;99.90;;;;;;4908716;29;20211;-67
2023/01/16 07:40:30;;;;;;;7.07;6.45;;;4.20;99.90;;;;;;4896979;29;20215;-67
2023/01/16 07:42:56;;;;;;;0.82;0.82;;;4.20;99.90;;;;;;4908078;29;20211;-66
2023/01/16 07:45:23;;;;;;;0.20;0.20;;;4.20;99.90;;;;;;4904469;29;20213;-67
2023/01/16 07:47:50;;;;;;;0.20;0.20;;;4.20;99.90;;;;;;4907277;29;20218;-67
2023/01/16 07:50:18;;;;;;;0.52;0.52;;;4.20;99.90;;;;;;4912312;29;20199;-67
2023/01/16 07:52:45;;;;;;;0.75;0.75;;;4.20;99.90;;;;;;4907035;29;20207;-67
2023/01/16 07:55:13;;;;;;;0.70;0.57;;;4.20;99.90;;;;;;4898843;29;20270;-67
2023/01/16 07:57:40;;;;;;;0.68;0.68;;;4.10;99.90;;;;;;4903688;29;20203;-67
2023/01/16 08:00:09;;;;;;;0.30;0.30;;;4.20;99.90;;;;;;4900072;29;20219;-67
2023/01/16 08:02:36;;;;;;;4.13;0.57;;;4.20;99.90;;;;;;4910796;29;20916;-67
2023/01/16 08:05:03;;;;;;;0.88;0.88;;;4.20;99.90;;;;;;4916570;29;20213;-67
2023/01/16 08:07:31;;;;;;;0.20;0.20;;;4.20;99.90;;;;;;4915007;29;20207;-67
2023/01/16 08:09:58;;;;;;;0.90;0.90;;;4.20;99.90;;;;;;4902381;29;20230;-68
2023/01/16 08:12:25;;;;;;;0.85;0.55;;;4.20;99.90;;;;;;4900894;29;20820;-68
2023/01/16 08:14:52;;;;;;;3.42;1.98;;;4.20;99.90;;;;;;4901242;29;20243;-68
2023/01/16 08:17:18;;;;;;;1.13;1.02;;;4.20;99.90;;;;;;4903588;29;20210;-68
2023/01/16 08:19:45;;;;;;;2.15;2.05;;;4.20;99.90;;;;;;4906249;29;20206;-68
2023/01/16 08:22:12;;;;;;;8.25;3.60;;;4.20;99.90;;;;;;4903149;29;20223;-68
2023/01/16 08:24:40;;;;;;;0.50;0.50;;;4.20;99.90;;;;;;4907481;29;20211;-68
2023/01/16 08:27:06;;;;;;;1.13;1.02;;;4.30;99.90;;;;;;4907888;29;20210;-69
2023/01/16 08:29:33;;;;;;;0.20;0.20;;;4.20;99.90;;;;;;4905386;29;20211;-66
2023/01/16 08:32:00;;;;;;;0.55;0.55;;;4.20;99.90;;;;;;4913557;29;20230;-68
2023/01/16 08:34:27;;;;;;;0.30;0.30;;;4.20;99.90;;;;;;4898091;29;20215;-67
2023/01/16 08:36:53;;;;;;;0.73;0.52;;;4.20;99.90;;;;;;4897075;29;20211;-67
2023/01/16 08:39:20;;;;;;;1.45;0.30;;;4.20;99.90;;;;;;4903335;29;20707;-67
2023/01/16 08:52:56;;;;;;;1.38;1.38;;;4.20;99.90;;;;;;4897513;29;20295;-68
2023/01/16 08:55:23;;;;;;;0.25;0.25;;;4.30;99.90;;;;;;4897042;29;20232;-68
2023/01/16 08:57:51;;;;;;;0.63;0.63;;;4.40;99.90;;;;;;4899159;29;20242;-67
2023/01/16 09:00:19;;;;;;;14.55;1.85;;;4.50;99.90;;;;;;4907856;29;20204;-67
2023/01/16 09:02:46;;;;;;;0.57;0.57;;;4.50;99.90;;;;;;4895702;29;20215;-67
2023/01/16 09:05:13;;;;;;;8.48;2.95;;;4.60;99.90;;;;;;4894772;29;20208;-68
2023/01/16 09:07:40;;;;;;;0.38;0.38;;;4.60;99.90;;;;;;4911881;29;20241;-67
2023/01/16 09:10:08;;;;;;;0.47;0.47;;;4.70;99.90;;;;;;4901417;29;20227;-69
2023/01/16 09:15:21;;;;;;;0.80;0.80;;;4.70;99.90;;;;;;4902851;29;20259;-68
2023/01/16 09:17:47;;;;;;;0.25;0.25;;;4.80;99.90;;;;;;4914314;29;20681;-67
2023/01/16 09:20:14;;;;;;;0.43;0.43;;;4.80;99.90;;;;;;4907885;29;20215;-68
2023/01/16 09:22:41;;;;;;;0.35;0.35;;;4.80;99.90;;;;;;4903993;29;20208;-68
2023/01/16 09:25:08;;;;;;;0.10;0.10;;;4.90;99.90;;;;;;4896285;29;20696;-68
2023/01/16 09:27:34;;;;;;;0.73;0.68;;;4.90;99.90;;;;;;4902080;29;20210;-68
2023/01/16 09:30:01;;;;;;;0.50;0.50;;;4.90;99.90;;;;;;4900207;29;20223;-67
2023/01/16 09:32:29;;;;;;;3.63;1.25;;;5.00;99.90;;;;;;4907440;29;20723;-68
2023/01/16 09:34:56;;;;;;;1.95;1.23;;;5.10;99.90;;;;;;4911076;29;20216;-68
2023/01/16 09:37:23;;;;;;;0.40;0.40;;;5.10;99.90;;;;;;4910554;29;20219;-66
2023/01/16 09:39:49;;;;;;;0.30;0.30;;;5.10;99.90;;;;;;4902118;29;20212;-68
2023/01/16 09:45:23;;;;;;;0.57;0.57;;;5.20;99.90;;;;;;4908106;29;20735;-67
2023/01/16 09:47:55;;;;;;;0.20;0.20;;;5.30;99.90;;;;;;4896853;29;20227;-68
2023/01/16 09:50:31;;;;;;;0.60;0.60;;;5.30;99.90;;;;;;4896703;29;20303;-68
2023/01/16 09:58:36;;;;;;;0.75;0.73;;;5.40;99.90;;;;;;4901163;29;20584;-68
2023/01/16 10:01:03;;;;;;;0.30;0.30;;;5.60;99.90;;;;;;4895572;29;20251;-68
2023/01/16 10:03:31;;;;;;;0.80;0.80;;;5.60;99.90;;;;;;4895323;29;20215;-68
2023/01/16 10:06:06;;;;;;;0.35;0.35;;;5.70;99.90;;;;;;4899723;29;20219;-67
2023/01/16 10:08:39;;;;;;;0.30;0.30;;;5.80;99.90;;;;;;4904303;29;20222;-65
2023/01/16 10:11:14;;;;;;;0.68;0.68;;;5.90;99.90;;;;;;4909511;29;20584;-66
2023/01/16 10:14:06;;;;;;;1.30;0.77;;;6.00;99.90;;;;;;4900694;29;20223;-66
2023/01/16 10:16:43;;;;;;;0.50;0.50;;;6.10;99.90;;;;;;4909492;29;20232;-66
2023/01/16 10:19:25;;;;;;;0.30;0.30;;;6.10;99.90;;;;;;4908671;29;20212;-66
2023/01/16 10:22:09;;;;;;;0.63;0.63;;;6.10;99.90;;;;;;4904068;29;20628;-65
2023/01/16 10:24:50;;;;;;;0.30;0.30;;;6.10;99.90;;;;;;4909745;29;20219;-66
2023/01/16 10:27:22;;;;;;;0.20;0.20;;;6.10;99.90;;;;;;4904501;29;20208;-66
2023/01/16 10:29:54;;;;;;;0.40;0.40;;;6.10;99.90;;;;;;4902470;29;20216;-66
2023/01/16 10:32:27;;;;;;;1.33;1.33;;;6.10;99.90;;;;;;4896417;29;20239;-66
2023/01/16 10:35:03;;;;;;;0.30;0.30;;;6.10;99.90;;;;;;4902960;29;20234;-67
2023/01/16 10:37:31;;;;;;;0.30;0.30;;;6.20;99.90;;;;;;4894907;29;20204;-65
2023/01/16 10:40:01;;;;;;;3.50;0.50;;;6.30;99.90;;;;;;4906392;29;20201;-66
2023/01/16 10:50:48;;;;;;;0.30;0.30;;;6.40;99.90;;;;;;4905455;29;20282;-66
2023/01/16 10:53:15;;;;;;;1.50;0.95;;;6.50;99.90;;;;;;4906321;29;20557;-66
2023/01/16 10:55:48;;;;;;;0.35;0.35;;;6.60;99.90;;;;;;4903241;29;20228;-65
2023/01/16 10:58:26;;;;;;;0.43;0.38;;;6.50;99.90;;;;;;4904129;29;20213;-66
2023/01/16 11:00:56;;;;;;;5.40;1.20;;;6.60;99.90;;;;;;4907356;29;20248;-64
2023/01/16 11:03:32;;;;;;;0.20;0.20;;;6.50;99.90;;;;;;4894520;29;20220;-67
2023/01/16 11:06:13;;;;;;;0.52;0.52;;;6.50;99.90;;;;;;4898378;29;20223;-65
2023/01/16 11:08:42;;;;;;;2.40;0.63;;;6.50;99.90;;;;;;4903351;29;20284;-66
2023/01/16 11:18:27;;;;;;;0.20;0.20;;;6.50;99.90;;;;;;4897621;29;20245;-65
2023/01/16 11:19:41;;;;;;;0.40;0.40;;;6.40;99.90;;;;;;4900035;29;20215;-66
2023/01/16 11:22:23;;;;;;;0.50;0.20;;;6.40;99.90;;;;;;4903288;29;20576;-66
2023/01/16 11:24:55;;;;;;;0.35;0.20;;;6.40;99.90;;;;;;4900528;29;20267;-66
2023/01/16 11:27:25;;;;;;;0.20;0.20;;;6.40;99.90;;;;;;4904136;29;20841;-67
2023/01/16 11:29:55;;;;;;;0.57;0.43;;;6.40;99.90;;;;;;4905237;29;20204;-65
2023/01/16 11:32:24;;;;;;;1.80;1.42;;;6.40;99.90;;;;;;4896568;29;20694;-66
2023/01/16 11:34:54;;;;;;;0.30;0.30;;;6.50;99.90;;;;;;4904479;29;20236;-66
2023/01/16 11:37:23;;;;;;;0.20;0.20;;;6.50;99.90;;;;;;4905338;29;20243;-66
2023/01/16 11:39:54;;;;;;;0.25;0.25;;;6.50;99.90;;;;;;4901376;29;20216;-66
2023/01/16 11:48:22;;;;;;;1.00;1.00;;;6.50;99.90;;;;;;4928221;23;20527;-67
2023/01/16 11:50:50;;;;;;;0.20;0.20;;;6.60;99.90;;;;;;4924881;29;20294;-67
2023/01/16 11:53:18;;;;;;;0.50;0.50;;;6.50;99.90;;;;;;4925199;29;20222;-66
2023/01/16 11:56:01;;;;;;;0.40;0.40;;;6.50;99.90;;;;;;4917156;29;20240;-67
2023/01/16 11:58:41;;;;;;;0.20;0.20;;;6.50;99.90;;;;;;4919256;29;20232;-67
2023/01/16 12:01:15;;;;;;;0.30;0.30;;;6.50;99.90;;;;;;4919056;29;20304;-65
2023/01/16 12:04:01;;;;;;;0.30;0.30;;;6.40;99.90;;;;;;4916443;29;20518;-65
2023/01/16 12:06:44;;;;;;;0.30;0.30;;;6.40;99.90;;;;;;4916757;29;20307;-66
2023/01/16 12:09:44;;;;;;;0.43;0.43;;;6.40;99.90;;;;;;4919811;29;20241;-66
2023/01/16 12:15:13;;;;;;;0.10;0.10;;;6.40;99.90;;;;;;4918263;29;20278;-67
2023/01/16 12:17:53;;;;;;;1.98;0.73;;;6.40;99.90;;;;;;4918935;29;20565;-66
2023/01/16 12:20:28;;;;;;;1.15;1.15;;;6.50;99.90;;;;;;4921822;29;20242;-66
2023/01/16 12:23:31;;;;;;;0.10;0.10;;;6.50;99.90;;;;;;4917689;29;20578;-67
2023/01/16 12:26:13;;;;;;;0.65;0.30;;;6.60;99.90;;;;;;4920926;29;20207;-66
2023/01/16 12:28:50;;;;;;;0.30;0.30;;;6.50;99.90;;;;;;4930642;29;20231;-66
2023/01/16 12:31:36;;;;;;;1.48;0.88;;;6.60;99.90;;;;;;4929878;29;20208;-66
2023/01/16 12:34:33;;;;;;;1.48;0.50;;;6.50;99.90;;;;;;4915632;29;20279;-66
2023/01/16 12:37:13;;;;;;;0.20;0.20;;;6.50;99.90;;;;;;4915037;29;20300;-66
2023/01/16 12:39:50;;;;;;;0.20;0.20;;;6.50;99.90;;;;;;4924905;29;20271;-66
2023/01/16 12:45:28;;;;;;;0.30;0.30;;;6.50;99.90;;;;;;4931381;29;20218;-66
2023/01/16 12:48:08;;;;;;;0.82;0.82;;;6.40;99.90;;;;;;4925634;29;20235;-66
2023/01/16 12:50:50;;;;;;;0.40;0.30;;;6.40;99.90;;;;;;4924695;29;20224;-66
2023/01/16 12:53:37;;;;;;;0.30;0.30;;;6.40;99.90;;;;;;4927880;29;20317;-66
2023/01/16 12:56:27;;;;;;;0.20;0.20;;;6.40;99.90;;;;;;4925860;29;20259;-66
2023/01/16 12:59:00;;;;;;;0.20;0.20;;;6.40;99.90;;;;;;4924041;29;20239;-66
2023/01/16 13:01:32;;;;;;;1.52;1.45;;;6.30;99.90;;;;;;4923119;29;20207;-68
2023/01/16 13:04:03;;;;;;;0.40;0.40;;;6.30;99.90;;;;;;4923471;29;20210;-68
2023/01/16 13:06:37;;;;;;;0.10;0.10;;;6.30;99.90;;;;;;4919605;29;20302;-68
2023/01/16 13:09:09;;;;;;;0.20;0.20;;;6.30;99.90;;;;;;4923083;29;20268;-68
2023/01/16 13:14:30;;;;;;;1.00;1.00;;;6.40;99.90;;;;;;4923108;29;20222;-68
2023/01/16 13:17:02;;;;;;;0.30;0.30;;;6.30;99.90;;;;;;4933776;29;20238;-68
2023/01/16 13:19:35;;;;;;;0.20;0.20;;;6.30;99.90;;;;;;4933389;29;20238;-68
2023/01/16 13:22:07;;;;;;;0.93;0.57;;;6.40;99.90;;;;;;4921878;29;20244;-68
2023/01/16 13:24:40;;;;;;;0.25;0.25;;;6.40;99.90;;;;;;4926490;29;20200;-69
2023/01/16 13:27:14;;;;;;;0.43;0.43;;;6.40;99.90;;;;;;4921987;29;20743;-69
2023/01/16 13:29:47;;;;;;;0.20;0.20;;;6.50;99.90;;;;;;4923199;29;20274;-68
2023/01/16 13:32:26;;;;;;;0.50;0.50;;;6.50;99.90;;;;;;4924118;29;20211;-69
2023/01/16 13:34:57;;;;;;;0.30;0.30;;;6.60;99.90;;;;;;4917293;29;20526;-67
2023/01/16 13:38:08;;;;;;;0.40;0.40;;;6.60;99.90;;;;;;4923984;29;20234;-67
2023/01/16 13:40:52;;;;;;;0.10;0.10;;;6.60;99.90;;;;;;4899541;29;20678;-68
2023/01/16 13:46:10;;;;;;;0.10;0.10;;;6.50;99.90;;;;;;4924222;29;20353;-68
2023/01/16 13:48:37;;;;;;;1.00;0.55;;;6.50;99.90;;;;;;4927018;29;20669;-68
2023/01/16 13:51:12;;;;;;;1.42;0.65;;;6.50;99.90;;;;;;4921083;29;20212;-69
2023/01/16 13:53:40;;;;;;;0.30;0.30;;;6.40;99.90;;;;;;4931996;29;20226;-68
2023/01/16 13:56:10;;;;;;;0.35;0.35;;;6.50;99.90;;;;;;4923226;29;20204;-68
2023/01/16 13:58:42;;;;;;;0.52;0.52;;;6.40;99.90;;;;;;4930736;29;20222;-67
2023/01/16 14:01:29;;;;;;;0.55;0.55;;;6.40;99.90;;;;;;4927192;29;20222;-68
2023/01/16 14:04:30;;;;;;;0.10;0.10;;;6.40;99.90;;;;;;4929282;29;20307;-69
2023/01/16 14:10:14;;;;;;;0.45;0.45;;;6.30;99.90;;;;;;4925692;29;20287;-68
2023/01/16 14:12:43;;;;;;;0.38;0.38;;;6.30;99.90;;;;;;4924464;29;20212;-67
2023/01/16 14:18:19;;;;;;;0.25;0.25;;;6.30;99.90;;;;;;4927775;29;20262;-68
2023/01/16 14:20:52;;;;;;;0.30;0.30;;;6.30;99.90;;;;;;4922425;29;20191;-68
2023/01/16 14:26:09;;;;;;;0.38;0.38;;;6.30;99.90;;;;;;4930930;29;20273;-68
2023/01/16 14:28:38;;;;;;;0.20;0.20;;;6.40;99.90;;;;;;4916256;29;20227;-68
2023/01/16 14:31:05;;;;;;;0.35;0.35;;;6.40;99.90;;;;;;4922278;29;20290;-68
2023/01/16 14:33:34;;;;;;;0.47;0.47;;;6.40;99.90;;;;;;4932203;29;20241;-68
2023/01/16 14:36:01;;;;;;;1.67;1.67;;;6.40;99.90;;;;;;4932882;29;20211;-68
2023/01/16 14:38:33;;;;;;;1.00;0.40;;;6.50;99.90;;;;;;4925627;29;20227;-68
2023/01/16 14:56:24;;;;;;;0.43;0.43;;;6.50;99.90;;;;;;4866039;29;20245;-67
2023/01/16 14:58:57;;;;;;;0.90;0.77;;;6.50;99.90;;;;;;4926989;29;20231;-67
2023/01/16 15:04:15;;;;;;;0.52;0.40;;;6.40;99.90;;;;;;4922547;29;20290;-67
2023/01/16 15:06:47;;;;;;;0.20;0.20;;;6.30;99.90;;;;;;4922833;29;20260;-67
2023/01/16 15:09:17;;;;;;;0.30;0.30;;;6.30;99.90;;;;;;4925328;29;20224;-67
2023/01/16 15:11:51;;;;;;;0.22;0.22;;;6.30;99.90;;;;;;4935072;29;20208;-67
2023/01/16 15:14:33;;;;;;;0.10;0.10;;;6.30;99.90;;;;;;4922877;29;20294;-67
2023/01/16 15:23:17;;;;;;;0.68;0.68;;;6.30;99.90;;;;;;4925051;29;20206;-67
2023/01/16 15:26:14;;;;;;;0.57;0.20;;;6.20;99.90;;;;;;4926343;29;20214;-68
2023/01/16 15:28:59;;;;;;;0.20;0.20;;;6.20;99.90;;;;;;4906150;29;20231;-68
2023/01/16 15:31:29;;;;;;;0.10;0.10;;;6.20;99.90;;;;;;4925869;29;20217;-67
2023/01/16 15:34:01;;;;;;;0.10;0.10;;;6.20;99.90;;;;;;4916814;29;20212;-68
2023/01/16 15:36:35;;;;;;;1.80;0.45;;;6.20;99.90;;;;;;4925700;29;20207;-68
2023/01/16 15:39:18;;;;;;;0.40;0.40;;;6.20;99.90;;;;;;4921320;29;20235;-67
2023/01/16 15:47:49;;;;;;;0.52;0.52;;;6.10;99.90;;;;;;4924839;29;20218;-69
2023/01/16 15:50:25;;;;;;;0.30;0.30;;;6.10;99.90;;;;;;4927783;29;20684;-68
2023/01/16 15:52:52;;;;;;;0.20;0.20;;;6.00;99.90;;;;;;4930665;29;20206;-68
2023/01/16 15:55:22;;;;;;;0.10;0.10;;;6.00;99.90;;;;;;4923460;29;20218;-68
2023/01/16 15:57:52;;;;;;;0.20;0.20;;;6.00;99.90;;;;;;4924394;29;20231;-69
2023/01/16 16:00:25;;;;;;;0.30;0.30;;;6.00;99.90;;;;;;4935436;29;20238;-68
2023/01/16 16:02:57;;;;;;;0.38;0.38;;;6.00;99.90;;;;;;4921595;29;20230;-67
2023/01/16 16:05:26;;;;;;;0.30;0.30;;;6.00;99.90;;;;;;4925233;29;20248;-66
2023/01/16 16:07:53;;;;;;;0.60;0.60;;;6.00;99.90;;;;;;4928776;29;20227;-66
2023/01/16 16:13:08;;;;;;;11.30;0.57;;;6.00;99.90;;;;;;4927115;29;20250;-68
2023/01/16 16:18:23;;;;;;;0.70;0.70;;;6.00;99.90;;;;;;4930514;29;20246;-68
2023/01/16 16:20:51;;;;;;;0.20;0.20;;;6.00;99.90;;;;;;4931357;29;20645;-67
2023/01/16 16:23:20;;;;;;;0.20;0.20;;;6.00;99.90;;;;;;4924116;29;20219;-67
2023/01/16 16:25:51;;;;;;;0.20;0.20;;;6.00;99.90;;;;;;4924644;29;20761;-68
2023/01/16 16:28:23;;;;;;;1.00;1.00;;;5.90;99.90;;;;;;4921953;29;20274;-68
2023/01/16 16:30:57;;;;;;;0.63;0.63;;;5.90;99.90;;;;;;4929824;29;20576;-67
2023/01/16 16:33:25;;;;;;;0.10;0.10;;;5.90;99.90;;;;;;4915618;29;20213;-67
2023/01/16 16:35:55;;;;;;;1.50;0.60;;;5.90;99.90;;;;;;4921673;29;20608;-67
2023/01/16 16:38:24;;;;;;;0.20;0.20;;;5.90;99.90;;;;;;4922112;29;20243;-68
2023/01/16 16:44:36;;;;;;;0.20;0.20;;;5.90;99.90;;;;;;4921783;29;20199;-67
2023/01/16 16:47:03;;;;;;;1.00;0.30;;;5.90;99.90;;;;;;4928363;29;20210;-68
2023/01/16 16:49:34;;;;;;;0.30;0.30;;;5.90;99.90;;;;;;4932630;29;20231;-68
2023/01/16 16:52:22;;;;;;;0.52;0.52;;;5.90;99.90;;;;;;4934602;29;20239;-69
2023/01/16 16:54:54;;;;;;;0.20;0.20;;;5.90;99.90;;;;;;4927351;29;20688;-68
2023/01/16 16:57:24;;;;;;;0.82;0.82;;;5.90;99.90;;;;;;4942137;29;20236;-68
2023/01/16 16:59:52;;;;;;;1.20;1.13;;;5.90;99.90;;;;;;4935333;29;20241;-69
2023/01/16 17:02:19;;;;;;;0.20;0.20;;;5.90;99.90;;;;;;4939435;29;20207;-68
2023/01/16 17:04:46;;;;;;;0.10;0.10;;;5.90;99.90;;;;;;4943416;29;20210;-68
2023/01/16 17:07:13;;;;;;;1.98;1.38;;;5.90;99.90;;;;;;4940563;29;20203;-68
2023/01/16 17:09:39;;;;;;;0.20;0.20;;;5.90;99.90;;;;;;4923654;29;20673;-68
2023/01/16 17:12:15;;;;;;;1.42;0.80;;;5.90;99.90;;;;;;4927601;29;20234;-72
2023/01/16 17:14:45;;;;;;;0.20;0.20;;;5.90;99.90;;;;;;4918245;29;20214;-68
2023/01/16 17:17:14;;;;;;;0.52;0.52;;;5.90;99.90;;;;;;4919569;29;20773;-68
2023/01/16 17:19:41;;;;;;;0.28;0.28;;;5.90;99.90;;;;;;4922845;29;20234;-69
2023/01/16 17:22:09;;;;;;;0.43;0.43;;;5.80;99.90;;;;;;4926070;29;20225;-68
2023/01/16 17:24:36;;;;;;;0.32;0.32;;;5.80;99.90;;;;;;4926844;29;20203;-68
2023/01/16 17:27:07;;;;;;;1.90;1.80;;;5.80;99.90;;;;;;4927197;29;20730;-69
2023/01/16 17:29:34;;;;;;;0.80;0.80;;;5.80;99.90;;;;;;4922513;29;20326;-69
2023/01/16 17:32:05;;;;;;;1.27;1.27;;;5.80;99.90;;;;;;4921809;29;20226;-68
2023/01/16 17:34:33;;;;;;;2.58;0.85;;;5.80;99.90;;;;;;4926997;29;20297;-69
2023/01/16 17:37:00;;;;;;;1.10;0.93;;;5.80;99.90;;;;;;4932948;29;20210;-68
2023/01/16 17:39:28;;;;;;;0.50;0.50;;;5.70;99.90;;;;;;4930351;29;20226;-69
2023/01/16 17:47:26;;;;;;;0.30;0.30;;;5.70;99.90;;;;;;4921695;29;20222;-68
2023/01/16 17:52:37;;;;;;;0.38;0.38;;;5.70;99.90;;;;;;4914876;29;20215;-69
2023/01/16 17:57:48;;;;;;;0.20;0.20;;;5.80;99.90;;;;;;4922843;29;20578;-68
2023/01/16 18:00:17;;;;;;;0.30;0.30;;;5.80;99.90;;;;;;4927490;29;20609;-68
2023/01/16 18:02:47;;;;;;;0.20;0.20;;;5.80;99.90;;;;;;4921593;29;20573;-68
2023/01/16 18:05:14;;;;;;;0.30;0.30;;;5.80;99.90;;;;;;4917896;29;20360;-68
2023/01/16 18:07:41;;;;;;;0.50;0.50;;;5.80;99.90;;;;;;4916426;29;20233;-69
2023/01/16 18:10:09;;;;;;;0.32;0.32;;;5.80;99.90;;;;;;4933526;29;20306;-68
2023/01/16 18:18:05;;;;;;;0.20;0.20;;;5.80;99.90;;;;;;4922636;29;20229;-68
2023/01/16 18:20:32;;;;;;;0.47;0.47;;;5.80;99.90;;;;;;4929706;29;20214;-68
2023/01/16 18:22:58;;;;;;;0.30;0.30;;;5.80;99.90;;;;;;4927694;29;20203;-68
2023/01/16 18:25:25;;;;;;;0.20;0.20;;;5.80;99.90;;;;;;4919477;29;20215;-68
2023/01/16 18:27:52;;;;;;;0.10;0.10;;;5.70;99.90;;;;;;4919800;29;20227;-67
2023/01/16 18:30:19;;;;;;;0.40;0.40;;;5.70;99.90;;;;;;4925507;29;20350;-68
2023/01/16 18:32:45;;;;;;;0.30;0.30;;;5.70;99.90;;;;;;4916347;29;20231;-67
2023/01/16 18:35:14;;;;;;;4.72;4.32;;;5.70;99.90;;;;;;4925664;29;20211;-68
2023/01/16 19:01:54;;;;;;;3.13;2.25;;;5.70;99.90;;;;;;4918946;29;20295;-67
2023/01/16 19:02:45;;;;;;;0.80;0.80;;;5.50;99.90;;;;;;4944432;23;20241;-68
2023/01/16 19:05:13;;;;;;;1.90;1.85;;;5.50;99.90;;;;;;4930440;29;20262;-68
2023/01/16 19:07:46;;;;;;;0.22;0.22;;;5.50;99.90;;;;;;4935446;29;20290;-69
2023/01/16 19:10:16;;;;;;;0.40;0.40;;;5.60;99.90;;;;;;4934336;29;20286;-68
2023/01/16 19:12:44;;;;;;;3.38;0.80;;;5.60;99.90;;;;;;4916901;29;20620;-69
2023/01/16 19:15:12;;;;;;;1.40;1.40;;;5.60;99.90;;;;;;4931841;29;20315;-71
2023/01/16 19:17:39;;;;;;;0.68;0.68;;;5.60;99.90;;;;;;4916601;29;20451;-68
2023/01/16 19:20:07;;;;;;;0.50;0.50;;;5.60;99.90;;;;;;4901232;29;20228;-68
2023/01/16 19:22:33;;;;;;;0.32;0.32;;;5.60;99.90;;;;;;4909127;29;20614;-68
2023/01/16 19:25:01;;;;;;;0.30;0.30;;;5.60;99.90;;;;;;4919155;29;20208;-70
2023/01/16 19:27:30;;;;;;;1.35;1.35;;;5.60;99.90;;;;;;4912528;29;20230;-69
2023/01/16 19:29:57;;;;;;;1.10;0.80;;;5.60;99.90;;;;;;4914216;29;20650;-70
2023/01/16 19:32:25;;;;;;;1.70;1.70;;;5.60;99.90;;;;;;4904301;29;20239;-67
2023/01/16 19:34:52;;;;;;;0.50;0.50;;;5.60;99.90;;;;;;4907226;29;20242;-69
2023/01/16 19:37:19;;;;;;;0.93;0.75;;;5.50;99.90;;;;;;4917796;29;20251;-70
2023/01/16 19:39:46;;;;;;;0.30;0.30;;;5.60;99.90;;;;;;4930311;29;20231;-67
2023/01/16 19:47:42;;;;;;;0.20;0.20;;;5.50;99.90;;;;;;4918228;29;20226;-68
2023/01/16 19:50:10;;;;;;;0.10;0.10;;;5.60;99.90;;;;;;4908344;29;20211;-68
2023/01/16 19:52:37;;;;;;;0.30;0.30;;;5.60;99.90;;;;;;4911081;29;20223;-69
2023/01/16 19:55:04;;;;;;;1.35;0.98;;;5.60;99.90;;;;;;4919003;29;20294;-68
2023/01/16 19:57:32;;;;;;;0.70;0.70;;;5.60;99.90;;;;;;4914291;29;20212;-67
2023/01/16 19:59:59;;;;;;;0.95;0.95;;;5.60;99.90;;;;;;4915720;29;20212;-69
2023/01/16 20:02:26;;;;;;;0.60;0.60;;;5.70;99.90;;;;;;4915155;29;20242;-68
2023/01/16 20:04:52;;;;;;;0.45;0.45;;;5.70;99.90;;;;;;4910943;29;20680;-68
2023/01/16 20:07:19;;;;;;;0.82;0.82;;;5.70;99.90;;;;;;4911848;29;20219;-68
2023/01/16 20:09:46;;;;;;;0.25;0.25;;;5.70;99.90;;;;;;4917141;29;20216;-69
2023/01/16 20:12:32;;;;;;;0.25;0.25;;;5.70;99.90;;;;;;4923399;29;20227;-69
2023/01/16 20:15:01;;;;;;;1.05;0.60;;;5.70;99.90;;;;;;4917425;29;20218;-69
2023/01/16 20:17:29;;;;;;;1.00;1.00;;;5.70;99.90;;;;;;4921934;29;20204;-68
2023/01/16 20:19:56;;;;;;;0.40;0.40;;;5.80;99.90;;;;;;4924692;29;20200;-69
2023/01/16 20:22:23;;;;;;;0.90;0.90;;;5.80;99.90;;;;;;4908909;29;20232;-69
2023/01/16 20:24:50;;;;;;;2.25;0.98;;;5.80;99.90;;;;;;4919744;29;20219;-69
2023/01/16 20:27:17;;;;;;;0.30;0.30;;;5.80;99.90;;;;;;4920057;29;20212;-69
2023/01/16 20:29:44;;;;;;;0.50;0.50;;;5.80;99.90;;;;;;4916702;29;20200;-68
2023/01/16 20:32:12;;;;;;;0.75;0.75;;;5.80;99.90;;;;;;4914975;29;20354;-69
2023/01/16 20:34:41;;;;;;;0.63;0.63;;;5.70;99.90;;;;;;4920596;29;20555;-69
2023/01/16 20:37:08;;;;;;;0.40;0.40;;;5.70;99.90;;;;;;4918807;29;20227;-67
2023/01/16 20:39:35;;;;;;;4.25;1.17;;;5.80;99.90;;;;;;4915297;29;20230;-68
2023/01/16 20:47:46;;;;;;;2.58;1.60;;;5.70;99.90;;;;;;4887702;29;20207;-68
2023/01/16 20:50:13;;;;;;;1.42;1.42;;;5.70;99.90;;;;;;4902803;29;20212;-68
2023/01/16 20:52:39;;;;;;;0.30;0.30;;;5.80;99.90;;;;;;4922425;29;20233;-65
2023/01/16 20:55:07;;;;;;;5.20;0.90;;;5.70;99.90;;;;;;4923399;29;20212;-69
2023/01/16 20:57:33;;;;;;;0.10;0.10;;;5.70;99.90;;;;;;4917251;29;20319;-68